createdAt,value
2019-05-22T00:02:10.534Z,14.20
2019-05-22T00:04:55.204Z,13.83
2019-05-22T00:07:30.671Z,12.73
2019-05-22T00:10:07.110Z,12.47
2019-05-22T00:12:46.810Z,14.77
2019-05-22T00:15:21.486Z,14.97
2019-05-22T00:18:00.926Z,13.03
2019-05-22T00:20:35.851Z,11.33
2019-05-22T00:23:11.805Z,10.43
2019-05-22T00:25:50.138Z,9.83
2019-05-22T00:28:27.085Z,9.10
2019-05-22T00:31:03.561Z,8.77
2019-05-22T00:33:38.474Z,7.87
2019-05-22T00:36:15.685Z,8.80
2019-05-22T00:38:51.935Z,7.57
2019-05-22T00:41:28.074Z,8.13
2019-05-22T00:44:02.858Z,9.37
2019-05-22T00:46:38.527Z,8.40
2019-05-22T00:49:15.920Z,7.93
2019-05-22T00:52:10.764Z,8.53
2019-05-22T00:55:03.085Z,6.83
2019-05-22T00:57:44.179Z,8.03
2019-05-22T01:00:34.950Z,7.53
2019-05-22T01:03:11.706Z,7.70
2019-05-22T01:05:48.676Z,7.10
2019-05-22T01:08:24.382Z,5.17
2019-05-22T01:10:59.646Z,4.50
2019-05-22T01:13:36.715Z,3.43
2019-05-22T01:16:13.228Z,4.07
2019-05-22T01:18:49.723Z,8.50
2019-05-22T01:21:26.084Z,4.23
2019-05-22T01:24:02.853Z,4.17
2019-05-22T01:26:37.900Z,3.60
2019-05-22T01:29:13.814Z,4.80
2019-05-22T01:31:53.381Z,5.10
2019-05-22T01:34:34.307Z,3.60
2019-05-22T01:37:11.441Z,4.43
2019-05-22T01:40:07.559Z,3.23
2019-05-22T01:42:47.363Z,3.13
2019-05-22T01:45:24.830Z,3.90
2019-05-22T01:48:05.375Z,4.03
2019-05-22T01:50:52.077Z,3.30
2019-05-22T01:53:29.674Z,2.73
2019-05-22T01:56:07.485Z,3.80
2019-05-22T01:58:47.529Z,2.73
2019-05-22T02:01:24.316Z,3.63
2019-05-22T02:04:01.365Z,3.33
2019-05-22T02:06:38.475Z,2.20
2019-05-22T02:09:26.742Z,2.23
2019-05-22T02:12:07.520Z,2.73
2019-05-22T02:14:46.825Z,2.60
2019-05-22T02:17:24.893Z,3.37
2019-05-22T02:20:00.870Z,2.20
2019-05-22T02:22:55.585Z,2.80
2019-05-22T03:47:24.555Z,2.60
2019-05-22T04:38:07.384Z,2.30
2019-05-22T05:30:36.236Z,2.70
2019-05-22T07:18:52.410Z,4.27
